sensor_id;sensor_type;location;lat;lon;timestamp;temperature;humidity
59307;DHT22;47983;53.016;-2.260;2023-04-25T00:02:22;2.30;99.90
59307;DHT22;47983;53.016;-2.260;2023-04-25T00:05:00;2.30;99.90
59307;DHT22;47983;53.016;-2.260;2023-04-25T00:07:30;2.40;99.90
59307;DHT22;47983;53.016;-2.260;2023-04-25T00:10:02;2.30;99.90
59307;DHT22;47983;53.016;-2.260;2023-04-25T00:12:30;2.90;99.90
59307;DHT22;47983;53.016;-2.260;2023-04-25T00:14:59;2.40;99.90
59307;DHT22;47983;53.016;-2.260;2023-04-25T00:17:27;2.40;99.90
59307;DHT22;47983;53.016;-2.260;2023-04-25T00:19:58;2.50;99.90
59307;DHT22;47983;53.016;-2.260;2023-04-25T00:22:29;2.50;99.90
59307;DHT22;47983;53.016;-2.260;2023-04-25T00:24:57;2.60;99.90
59307;DHT22;47983;53.016;-2.260;2023-04-25T00:27:30;2.60;99.90
59307;DHT22;47983;53.016;-2.260;2023-04-25T00:29:58;2.60;99.90
59307;DHT22;47983;53.016;-2.260;2023-04-25T00:32:30;2.50;99.90
59307;DHT22;47983;53.016;-2.260;2023-04-25T00:35:03;2.60;99.90
59307;DHT22;47983;53.016;-2.260;2023-04-25T00:37:31;2.50;99.90
59307;DHT22;47983;53.016;-2.260;2023-04-25T00:39:59;2.50;99.90
59307;DHT22;47983;53.016;-2.260;2023-04-25T00:42:31;2.40;99.90
59307;DHT22;47983;53.016;-2.260;2023-04-25T00:45:00;2.40;99.90
59307;DHT22;47983;53.016;-2.260;2023-04-25T00:47:33;2.30;99.90
59307;DHT22;47983;53.016;-2.260;2023-04-25T00:50:05;2.20;99.90
59307;DHT22;47983;53.016;-2.260;2023-04-25T00:52:34;2.20;99.90
59307;DHT22;47983;53.016;-2.260;2023-04-25T00:55:02;2.10;99.90
59307;DHT22;47983;53.016;-2.260;2023-04-25T00:57:30;2.10;99.90
59307;DHT22;47983;53.016;-2.260;2023-04-25T00:59:59;2.00;99.90
59307;DHT22;47983;53.016;-2.260;2023-04-25T01:02:28;1.90;99.90
59307;DHT22;47983;53.016;-2.260;2023-04-25T01:10:01;1.80;99.90
59307;DHT22;47983;53.016;-2.260;2023-04-25T01:12:32;1.80;99.90
59307;DHT22;47983;53.016;-2.260;2023-04-25T01:15:03;1.70;99.90
59307;DHT22;47983;53.016;-2.260;2023-04-25T01:17:32;1.70;99.90
59307;DHT22;47983;53.016;-2.260;2023-04-25T01:20:09;1.70;99.90
59307;DHT22;47983;53.016;-2.260;2023-04-25T01:22:43;1.70;99.90
59307;DHT22;47983;53.016;-2.260;2023-04-25T01:25:11;1.70;99.90
59307;DHT22;47983;53.016;-2.260;2023-04-25T01:27:40;1.60;99.90
59307;DHT22;47983;53.016;-2.260;2023-04-25T01:30:12;1.60;99.90
59307;DHT22;47983;53.016;-2.260;2023-04-25T01:32:41;1.60;99.90
59307;DHT22;47983;53.016;-2.260;2023-04-25T01:35:21;1.60;99.90
59307;DHT22;47983;53.016;-2.260;2023-04-25T01:37:53;1.60;99.90
59307;DHT22;47983;53.016;-2.260;2023-04-25T01:40:22;1.60;99.90
59307;DHT22;47983;53.016;-2.260;2023-04-25T01:42:51;1.60;99.90
59307;DHT22;47983;53.016;-2.260;2023-04-25T01:45:23;1.60;99.90
59307;DHT22;47983;53.016;-2.260;2023-04-25T01:47:54;1.50;99.90
59307;DHT22;47983;53.016;-2.260;2023-04-25T01:50:22;1.50;99.90
59307;DHT22;47983;53.016;-2.260;2023-04-25T01:52:50;1.50;99.90
59307;DHT22;47983;53.016;-2.260;2023-04-25T01:55:19;1.40;99.90
59307;DHT22;47983;53.016;-2.260;2023-04-25T01:58:02;1.40;99.90
59307;DHT22;47983;53.016;-2.260;2023-04-25T02:00:52;1.40;99.90
59307;DHT22;47983;53.016;-2.260;2023-04-25T02:03:20;1.30;99.90
59307;DHT22;47983;53.016;-2.260;2023-04-25T02:05:48;1.30;99.90
59307;DHT22;47983;53.016;-2.260;2023-04-25T02:08:17;1.30;99.90
59307;DHT22;47983;53.016;-2.260;2023-04-25T02:10:45;1.30;99.90
59307;DHT22;47983;53.016;-2.260;2023-04-25T02:13:18;1.20;99.90
59307;DHT22;47983;53.016;-2.260;2023-04-25T02:16:00;1.20;99.90
59307;DHT22;47983;53.016;-2.260;2023-04-25T02:18:30;1.20;99.90
59307;DHT22;47983;53.016;-2.260;2023-04-25T02:21:01;1.10;99.90
59307;DHT22;47983;53.016;-2.260;2023-04-25T02:23:29;1.10;99.90
59307;DHT22;47983;53.016;-2.260;2023-04-25T02:25:59;1.10;99.90
59307;DHT22;47983;53.016;-2.260;2023-04-25T02:28:27;1.10;99.90
59307;DHT22;47983;53.016;-2.260;2023-04-25T02:30:55;1.00;99.90
59307;DHT22;47983;53.016;-2.260;2023-04-25T02:33:24;1.00;99.90
59307;DHT22;47983;53.016;-2.260;2023-04-25T02:35:52;0.90;99.90
59307;DHT22;47983;53.016;-2.260;2023-04-25T02:38:21;0.90;99.90
59307;DHT22;47983;53.016;-2.260;2023-04-25T02:40:49;0.90;99.90
59307;DHT22;47983;53.016;-2.260;2023-04-25T02:43:18;0.80;99.90
59307;DHT22;47983;53.016;-2.260;2023-04-25T02:45:45;0.80;99.90
59307;DHT22;47983;53.016;-2.260;2023-04-25T02:48:13;0.80;99.90
59307;DHT22;47983;53.016;-2.260;2023-04-25T02:50:43;0.80;99.90
59307;DHT22;47983;53.016;-2.260;2023-04-25T02:53:12;0.80;99.90
59307;DHT22;47983;53.016;-2.260;2023-04-25T02:55:48;0.70;99.90
59307;DHT22;47983;53.016;-2.260;2023-04-25T02:58:19;2.30;99.90
59307;DHT22;47983;53.016;-2.260;2023-04-25T03:00:49;0.70;99.90
59307;DHT22;47983;53.016;-2.260;2023-04-25T03:03:18;0.60;99.90
59307;DHT22;47983;53.016;-2.260;2023-04-25T03:05:51;0.60;99.90
59307;DHT22;47983;53.016;-2.260;2023-04-25T03:08:26;0.60;99.90
59307;DHT22;47983;53.016;-2.260;2023-04-25T03:11:00;0.60;99.90
59307;DHT22;47983;53.016;-2.260;2023-04-25T03:13:29;0.60;99.90
59307;DHT22;47983;53.016;-2.260;2023-04-25T03:15:58;0.60;99.90
59307;DHT22;47983;53.016;-2.260;2023-04-25T03:18:25;0.60;99.90
59307;DHT22;47983;53.016;-2.260;2023-04-25T03:20:56;0.50;99.90
59307;DHT22;47983;53.016;-2.260;2023-04-25T03:23:24;0.50;99.90
59307;DHT22;47983;53.016;-2.260;2023-04-25T03:25:52;0.40;99.90
59307;DHT22;47983;53.016;-2.260;2023-04-25T03:28:20;0.50;99.90
59307;DHT22;47983;53.016;-2.260;2023-04-25T03:30:52;0.40;99.90
59307;DHT22;47983;53.016;-2.260;2023-04-25T03:33:20;0.40;99.90
59307;DHT22;47983;53.016;-2.260;2023-04-25T03:35:49;0.40;99.90
59307;DHT22;47983;53.016;-2.260;2023-04-25T03:38:19;0.40;99.90
59307;DHT22;47983;53.016;-2.260;2023-04-25T03:40:47;0.30;99.90
59307;DHT22;47983;53.016;-2.260;2023-04-25T03:43:22;0.30;99.90
59307;DHT22;47983;53.016;-2.260;2023-04-25T03:45:56;0.30;99.90
59307;DHT22;47983;53.016;-2.260;2023-04-25T03:48:26;0.20;99.90
59307;DHT22;47983;53.016;-2.260;2023-04-25T03:50:54;0.30;99.90
59307;DHT22;47983;53.016;-2.260;2023-04-25T03:53:23;0.20;99.90
59307;DHT22;47983;53.016;-2.260;2023-04-25T03:56:20;0.20;99.90
59307;DHT22;47983;53.016;-2.260;2023-04-25T03:58:55;0.20;99.90
59307;DHT22;47983;53.016;-2.260;2023-04-25T04:01:29;0.20;99.90
59307;DHT22;47983;53.016;-2.260;2023-04-25T04:03:57;0.10;99.90
59307;DHT22;47983;53.016;-2.260;2023-04-25T04:06:26;0.20;99.90
59307;DHT22;47983;53.016;-2.260;2023-04-25T04:09:02;0.10;99.90
59307;DHT22;47983;53.016;-2.260;2023-04-25T04:11:34;0.10;99.90
59307;DHT22;47983;53.016;-2.260;2023-04-25T04:14:08;0.10;99.90
59307;DHT22;47983;53.016;-2.260;2023-04-25T04:16:41;0.10;99.90
59307;DHT22;47983;53.016;-2.260;2023-04-25T04:21:43;0.10;99.90
59307;DHT22;47983;53.016;-2.260;2023-04-25T04:24:11;0.10;99.90
59307;DHT22;47983;53.016;-2.260;2023-04-25T04:26:50;0.00;99.90
59307;DHT22;47983;53.016;-2.260;2023-04-25T04:29:36;0.00;99.90
59307;DHT22;47983;53.016;-2.260;2023-04-25T04:32:24;0.00;99.90
59307;DHT22;47983;53.016;-2.260;2023-04-25T04:34:53;-0.10;99.90
59307;DHT22;47983;53.016;-2.260;2023-04-25T04:37:25;-0.10;99.90
59307;DHT22;47983;53.016;-2.260;2023-04-25T04:39:53;-0.10;99.90
59307;DHT22;47983;53.016;-2.260;2023-04-25T04:42:40;-0.10;99.90
59307;DHT22;47983;53.016;-2.260;2023-04-25T04:45:46;-0.20;99.90
59307;DHT22;47983;53.016;-2.260;2023-04-25T04:48:46;-0.20;99.90
59307;DHT22;47983;53.016;-2.260;2023-04-25T04:51:45;-0.20;99.90
59307;DHT22;47983;53.016;-2.260;2023-04-25T04:54:32;-0.20;99.90
59307;DHT22;47983;53.016;-2.260;2023-04-25T04:57:20;-0.30;99.90
59307;DHT22;47983;53.016;-2.260;2023-04-25T05:00:09;-0.20;99.90
59307;DHT22;47983;53.016;-2.260;2023-04-25T05:02:41;-0.20;99.90
59307;DHT22;47983;53.016;-2.260;2023-04-25T05:05:35;-0.30;99.90
59307;DHT22;47983;53.016;-2.260;2023-04-25T05:08:17;-0.30;99.90
59307;DHT22;47983;53.016;-2.260;2023-04-25T05:11:15;-0.30;99.90
59307;DHT22;47983;53.016;-2.260;2023-04-25T05:14:06;2.60;99.90
59307;DHT22;47983;53.016;-2.260;2023-04-25T05:17:00;-0.20;99.90
59307;DHT22;47983;53.016;-2.260;2023-04-25T05:19:50;-0.20;99.90
59307;DHT22;47983;53.016;-2.260;2023-04-25T05:22:44;-0.20;99.90
59307;DHT22;47983;53.016;-2.260;2023-04-25T05:25:19;-0.20;99.90
59307;DHT22;47983;53.016;-2.260;2023-04-25T05:28:05;-0.20;99.90
59307;DHT22;47983;53.016;-2.260;2023-04-25T05:31:11;-0.20;99.90
59307;DHT22;47983;53.016;-2.260;2023-04-25T05:33:54;-0.20;99.90
59307;DHT22;47983;53.016;-2.260;2023-04-25T05:36:24;-0.20;99.90
59307;DHT22;47983;53.016;-2.260;2023-04-25T05:38:53;-0.10;99.90
59307;DHT22;47983;53.016;-2.260;2023-04-25T05:41:21;-0.10;99.90
59307;DHT22;47983;53.016;-2.260;2023-04-25T05:44:10;-0.10;99.90
59307;DHT22;47983;53.016;-2.260;2023-04-25T05:46:59;0.00;99.90
59307;DHT22;47983;53.016;-2.260;2023-04-25T05:49:45;0.00;99.90
59307;DHT22;47983;53.016;-2.260;2023-04-25T05:52:24;0.00;99.90
59307;DHT22;47983;53.016;-2.260;2023-04-25T05:55:11;0.00;99.90
59307;DHT22;47983;53.016;-2.260;2023-04-25T05:57:39;0.10;99.90
59307;DHT22;47983;53.016;-2.260;2023-04-25T06:00:18;0.10;99.90
59307;DHT22;47983;53.016;-2.260;2023-04-25T06:02:52;0.20;99.90
59307;DHT22;47983;53.016;-2.260;2023-04-25T06:05:20;0.30;99.90
59307;DHT22;47983;53.016;-2.260;2023-04-25T06:07:48;0.30;99.90
59307;DHT22;47983;53.016;-2.260;2023-04-25T06:10:19;0.30;99.90
59307;DHT22;47983;53.016;-2.260;2023-04-25T06:12:48;0.50;99.90
59307;DHT22;47983;53.016;-2.260;2023-04-25T06:15:19;0.50;99.90
59307;DHT22;47983;53.016;-2.260;2023-04-25T06:17:50;0.60;99.90
59307;DHT22;47983;53.016;-2.260;2023-04-25T06:20:18;0.60;99.90
59307;DHT22;47983;53.016;-2.260;2023-04-25T06:22:47;0.70;99.90
59307;DHT22;47983;53.016;-2.260;2023-04-25T06:25:15;0.90;99.90
59307;DHT22;47983;53.016;-2.260;2023-04-25T06:27:46;0.90;99.90
59307;DHT22;47983;53.016;-2.260;2023-04-25T06:30:16;0.90;99.90
59307;DHT22;47983;53.016;-2.260;2023-04-25T06:32:45;1.10;99.90
59307;DHT22;47983;53.016;-2.260;2023-04-25T06:35:13;1.10;99.90
59307;DHT22;47983;53.016;-2.260;2023-04-25T06:37:41;1.20;99.90
59307;DHT22;47983;53.016;-2.260;2023-04-25T06:40:09;1.30;99.90
59307;DHT22;47983;53.016;-2.260;2023-04-25T06:42:38;1.30;99.90
59307;DHT22;47983;53.016;-2.260;2023-04-25T06:45:28;1.40;99.90
59307;DHT22;47983;53.016;-2.260;2023-04-25T06:47:56;1.50;99.90
59307;DHT22;47983;53.016;-2.260;2023-04-25T06:50:27;1.70;99.90
59307;DHT22;47983;53.016;-2.260;2023-04-25T06:55:29;1.80;99.90
59307;DHT22;47983;53.016;-2.260;2023-04-25T06:58:18;2.00;99.90
59307;DHT22;47983;53.016;-2.260;2023-04-25T07:00:55;2.30;99.90
59307;DHT22;47983;53.016;-2.260;2023-04-25T07:03:25;2.40;99.90
59307;DHT22;47983;53.016;-2.260;2023-04-25T07:06:10;2.50;99.90
59307;DHT22;47983;53.016;-2.260;2023-04-25T07:08:38;2.70;99.90
59307;DHT22;47983;53.016;-2.260;2023-04-25T07:11:20;2.70;99.90
59307;DHT22;47983;53.016;-2.260;2023-04-25T07:13:55;2.90;99.90
59307;DHT22;47983;53.016;-2.260;2023-04-25T07:16:25;2.90;99.90
59307;DHT22;47983;53.016;-2.260;2023-04-25T07:18:53;3.10;99.90
59307;DHT22;47983;53.016;-2.260;2023-04-25T07:21:21;3.40;99.90
59307;DHT22;47983;53.016;-2.260;2023-04-25T07:23:55;3.50;99.90
59307;DHT22;47983;53.016;-2.260;2023-04-25T07:26:28;3.50;99.90
59307;DHT22;47983;53.016;-2.260;2023-04-25T07:29:14;3.60;99.90
59307;DHT22;47983;53.016;-2.260;2023-04-25T07:31:45;3.70;99.90
59307;DHT22;47983;53.016;-2.260;2023-04-25T07:34:13;3.90;99.90
59307;DHT22;47983;53.016;-2.260;2023-04-25T07:36:40;3.90;99.90
59307;DHT22;47983;53.016;-2.260;2023-04-25T07:39:08;4.00;99.90
59307;DHT22;47983;53.016;-2.260;2023-04-25T07:41:36;4.10;99.90
59307;DHT22;47983;53.016;-2.260;2023-04-25T07:44:05;4.20;99.90
59307;DHT22;47983;53.016;-2.260;2023-04-25T07:46:35;4.30;99.90
59307;DHT22;47983;53.016;-2.260;2023-04-25T07:49:04;4.40;99.90
59307;DHT22;47983;53.016;-2.260;2023-04-25T07:51:32;4.50;99.90
59307;DHT22;47983;53.016;-2.260;2023-04-25T07:54:06;4.50;99.90
59307;DHT22;47983;53.016;-2.260;2023-04-25T07:56:36;4.70;99.90
59307;DHT22;47983;53.016;-2.260;2023-04-25T07:59:19;4.70;99.90
59307;DHT22;47983;53.016;-2.260;2023-04-25T08:01:47;4.70;99.90
59307;DHT22;47983;53.016;-2.260;2023-04-25T08:04:17;4.80;99.90
59307;DHT22;47983;53.016;-2.260;2023-04-25T08:06:55;4.90;99.90
59307;DHT22;47983;53.016;-2.260;2023-04-25T08:09:27;4.90;99.90
59307;DHT22;47983;53.016;-2.260;2023-04-25T08:11:56;5.00;99.90
59307;DHT22;47983;53.016;-2.260;2023-04-25T08:14:29;5.10;99.90
59307;DHT22;47983;53.016;-2.260;2023-04-25T08:17:03;5.20;99.90
59307;DHT22;47983;53.016;-2.260;2023-04-25T08:19:33;5.30;99.90
59307;DHT22;47983;53.016;-2.260;2023-04-25T08:22:02;5.30;99.90
59307;DHT22;47983;53.016;-2.260;2023-04-25T08:24:41;5.40;99.90
59307;DHT22;47983;53.016;-2.260;2023-04-25T08:27:09;5.60;99.90
59307;DHT22;47983;53.016;-2.260;2023-04-25T08:29:37;5.50;99.90
59307;DHT22;47983;53.016;-2.260;2023-04-25T08:32:05;5.60;99.90
59307;DHT22;47983;53.016;-2.260;2023-04-25T08:34:36;5.70;99.90
59307;DHT22;47983;53.016;-2.260;2023-04-25T08:37:05;5.80;99.90
59307;DHT22;47983;53.016;-2.260;2023-04-25T08:39:40;5.90;99.90
59307;DHT22;47983;53.016;-2.260;2023-04-25T08:42:28;5.90;99.90
59307;DHT22;47983;53.016;-2.260;2023-04-25T08:44:59;6.10;99.90
59307;DHT22;47983;53.016;-2.260;2023-04-25T08:47:35;6.20;99.90
59307;DHT22;47983;53.016;-2.260;2023-04-25T08:50:06;6.20;99.90
59307;DHT22;47983;53.016;-2.260;2023-04-25T08:52:43;6.30;99.90
59307;DHT22;47983;53.016;-2.260;2023-04-25T08:55:15;6.40;99.90
59307;DHT22;47983;53.016;-2.260;2023-04-25T08:57:43;6.50;99.90
59307;DHT22;47983;53.016;-2.260;2023-04-25T09:00:13;6.50;99.90
59307;DHT22;47983;53.016;-2.260;2023-04-25T09:02:44;6.60;99.90
59307;DHT22;47983;53.016;-2.260;2023-04-25T09:05:13;6.70;99.90
59307;DHT22;47983;53.016;-2.260;2023-04-25T09:10:09;6.80;99.90
59307;DHT22;47983;53.016;-2.260;2023-04-25T09:12:38;7.00;99.90
59307;DHT22;47983;53.016;-2.260;2023-04-25T09:15:12;7.00;99.90
59307;DHT22;47983;53.016;-2.260;2023-04-25T09:17:59;7.10;99.90
59307;DHT22;47983;53.016;-2.260;2023-04-25T09:20:43;7.10;99.90
59307;DHT22;47983;53.016;-2.260;2023-04-25T09:23:14;7.20;99.90
59307;DHT22;47983;53.016;-2.260;2023-04-25T09:25:42;9.20;99.90
59307;DHT22;47983;53.016;-2.260;2023-04-25T09:28:11;7.40;99.90
59307;DHT22;47983;53.016;-2.260;2023-04-25T09:30:38;7.60;99.90
59307;DHT22;47983;53.016;-2.260;2023-04-25T09:33:13;7.60;99.90
59307;DHT22;47983;53.016;-2.260;2023-04-25T09:35:49;7.80;99.90
59307;DHT22;47983;53.016;-2.260;2023-04-25T09:38:44;7.80;99.90
59307;DHT22;47983;53.016;-2.260;2023-04-25T09:41:29;7.90;99.90
59307;DHT22;47983;53.016;-2.260;2023-04-25T09:44:00;8.00;99.90
59307;DHT22;47983;53.016;-2.260;2023-04-25T09:46:34;8.10;99.90
59307;DHT22;47983;53.016;-2.260;2023-04-25T09:49:07;8.10;99.90
59307;DHT22;47983;53.016;-2.260;2023-04-25T09:51:57;8.30;99.90
59307;DHT22;47983;53.016;-2.260;2023-04-25T09:54:29;8.40;99.90
59307;DHT22;47983;53.016;-2.260;2023-04-25T09:57:12;8.50;99.90
59307;DHT22;47983;53.016;-2.260;2023-04-25T09:59:46;8.70;99.90
59307;DHT22;47983;53.016;-2.260;2023-04-25T10:02:20;8.90;99.90
59307;DHT22;47983;53.016;-2.260;2023-04-25T10:04:54;9.00;99.90
59307;DHT22;47983;53.016;-2.260;2023-04-25T10:07:37;10.10;99.90
59307;DHT22;47983;53.016;-2.260;2023-04-25T10:10:10;9.20;99.90
59307;DHT22;47983;53.016;-2.260;2023-04-25T10:12:40;9.40;99.90
59307;DHT22;47983;53.016;-2.260;2023-04-25T10:15:10;9.40;99.90
59307;DHT22;47983;53.016;-2.260;2023-04-25T10:17:39;9.50;99.90
59307;DHT22;47983;53.016;-2.260;2023-04-25T10:20:08;9.60;99.90
59307;DHT22;47983;53.016;-2.260;2023-04-25T10:22:42;9.60;99.90
59307;DHT22;47983;53.016;-2.260;2023-04-25T10:25:11;9.70;99.90
59307;DHT22;47983;53.016;-2.260;2023-04-25T10:27:40;9.80;99.90
59307;DHT22;47983;53.016;-2.260;2023-04-25T10:30:10;9.80;99.90
59307;DHT22;47983;53.016;-2.260;2023-04-25T10:32:43;9.80;99.90
59307;DHT22;47983;53.016;-2.260;2023-04-25T10:35:15;9.90;99.90
59307;DHT22;47983;53.016;-2.260;2023-04-25T10:38:03;10.00;99.90
59307;DHT22;47983;53.016;-2.260;2023-04-25T10:40:32;10.10;99.20
59307;DHT22;47983;53.016;-2.260;2023-04-25T10:43:33;10.10;99.10
59307;DHT22;47983;53.016;-2.260;2023-04-25T10:46:00;10.10;99.30
59307;DHT22;47983;53.016;-2.260;2023-04-25T10:48:29;10.00;99.90
59307;DHT22;47983;53.016;-2.260;2023-04-25T10:51:31;10.10;99.90
59307;DHT22;47983;53.016;-2.260;2023-04-25T10:54:17;10.30;98.80
59307;DHT22;47983;53.016;-2.260;2023-04-25T10:56:45;10.30;96.70
59307;DHT22;47983;53.016;-2.260;2023-04-25T10:59:15;10.20;97.00
59307;DHT22;47983;53.016;-2.260;2023-04-25T11:01:44;10.10;98.00
59307;DHT22;47983;53.016;-2.260;2023-04-25T11:09:39;10.40;97.80
59307;DHT22;47983;53.016;-2.260;2023-04-25T11:12:09;10.30;96.90
59307;DHT22;47983;53.016;-2.260;2023-04-25T11:14:36;10.20;95.80
59307;DHT22;47983;53.016;-2.260;2023-04-25T11:17:04;10.20;96.60
59307;DHT22;47983;53.016;-2.260;2023-04-25T11:19:33;10.20;96.60
59307;DHT22;47983;53.016;-2.260;2023-04-25T11:22:02;10.30;97.00
59307;DHT22;47983;53.016;-2.260;2023-04-25T11:24:31;10.80;97.40
59307;DHT22;47983;53.016;-2.260;2023-04-25T11:27:00;10.80;97.50
59307;DHT22;47983;53.016;-2.260;2023-04-25T11:29:33;10.90;95.20
59307;DHT22;47983;53.016;-2.260;2023-04-25T11:32:01;11.00;95.60
59307;DHT22;47983;53.016;-2.260;2023-04-25T11:34:31;11.10;95.90
59307;DHT22;47983;53.016;-2.260;2023-04-25T11:37:03;11.40;95.60
59307;DHT22;47983;53.016;-2.260;2023-04-25T11:39:31;11.80;96.10
59307;DHT22;47983;53.016;-2.260;2023-04-25T11:41:59;12.20;90.00
59307;DHT22;47983;53.016;-2.260;2023-04-25T11:44:31;12.30;88.40
59307;DHT22;47983;53.016;-2.260;2023-04-25T11:46:59;12.30;88.70
59307;DHT22;47983;53.016;-2.260;2023-04-25T11:49:30;12.00;86.40
59307;DHT22;47983;53.016;-2.260;2023-04-25T11:51:59;12.00;87.30
59307;DHT22;47983;53.016;-2.260;2023-04-25T11:54:27;11.90;86.90
59307;DHT22;47983;53.016;-2.260;2023-04-25T11:56:54;12.00;92.10
59307;DHT22;47983;53.016;-2.260;2023-04-25T11:59:29;12.10;92.50
59307;DHT22;47983;53.016;-2.260;2023-04-25T12:01:56;12.60;93.10
59307;DHT22;47983;53.016;-2.260;2023-04-25T12:04:25;13.10;88.60
59307;DHT22;47983;53.016;-2.260;2023-04-25T12:06:55;14.00;87.80
59307;DHT22;47983;53.016;-2.260;2023-04-25T12:09:31;14.00;87.40
59307;DHT22;47983;53.016;-2.260;2023-04-25T12:12:00;14.20;80.10
59307;DHT22;47983;53.016;-2.260;2023-04-25T12:14:33;13.60;79.00
59307;DHT22;47983;53.016;-2.260;2023-04-25T12:17:03;14.00;79.60
59307;DHT22;47983;53.016;-2.260;2023-04-25T12:19:33;13.60;79.10
59307;DHT22;47983;53.016;-2.260;2023-04-25T12:22:02;13.10;77.70
59307;DHT22;47983;53.016;-2.260;2023-04-25T12:24:33;12.70;78.30
59307;DHT22;47983;53.016;-2.260;2023-04-25T12:27:07;12.30;80.70
59307;DHT22;47983;53.016;-2.260;2023-04-25T12:29:37;12.50;89.00
59307;DHT22;47983;53.016;-2.260;2023-04-25T12:32:16;13.60;81.40
59307;DHT22;47983;53.016;-2.260;2023-04-25T12:34:45;13.60;80.60
59307;DHT22;47983;53.016;-2.260;2023-04-25T12:37:13;14.20;73.10
59307;DHT22;47983;53.016;-2.260;2023-04-25T12:39:40;14.80;76.00
59307;DHT22;47983;53.016;-2.260;2023-04-25T12:42:08;15.50;74.90
59307;DHT22;47983;53.016;-2.260;2023-04-25T12:44:39;16.00;71.50
59307;DHT22;47983;53.016;-2.260;2023-04-25T12:47:08;16.50;71.70
59307;DHT22;47983;53.016;-2.260;2023-04-25T12:49:36;16.70;65.10
59307;DHT22;47983;53.016;-2.260;2023-04-25T12:52:03;16.70;63.30
59307;DHT22;47983;53.016;-2.260;2023-04-25T12:54:31;16.50;63.30
59307;DHT22;47983;53.016;-2.260;2023-04-25T12:56:59;16.20;64.00
59307;DHT22;47983;53.016;-2.260;2023-04-25T12:59:26;15.90;64.10
59307;DHT22;47983;53.016;-2.260;2023-04-25T13:01:55;15.30;63.50
59307;DHT22;47983;53.016;-2.260;2023-04-25T13:04:23;15.00;64.30
59307;DHT22;47983;53.016;-2.260;2023-04-25T13:06:51;14.20;64.70
59307;DHT22;47983;53.016;-2.260;2023-04-25T13:09:18;13.80;65.80
59307;DHT22;47983;53.016;-2.260;2023-04-25T13:11:48;13.10;66.70
59307;DHT22;47983;53.016;-2.260;2023-04-25T13:14:19;13.00;67.40
59307;DHT22;47983;53.016;-2.260;2023-04-25T13:16:46;12.70;68.20
59307;DHT22;47983;53.016;-2.260;2023-04-25T13:19:14;12.70;69.00
59307;DHT22;47983;53.016;-2.260;2023-04-25T13:21:45;12.60;67.30
59307;DHT22;47983;53.016;-2.260;2023-04-25T13:24:13;12.50;69.80
59307;DHT22;47983;53.016;-2.260;2023-04-25T13:26:40;12.50;70.50
59307;DHT22;47983;53.016;-2.260;2023-04-25T13:29:08;12.40;70.20
59307;DHT22;47983;53.016;-2.260;2023-04-25T13:31:36;12.80;77.70
59307;DHT22;47983;53.016;-2.260;2023-04-25T13:34:03;13.50;74.60
59307;DHT22;47983;53.016;-2.260;2023-04-25T13:36:31;14.30;74.90
59307;DHT22;47983;53.016;-2.260;2023-04-25T13:38:59;15.50;64.00
59307;DHT22;47983;53.016;-2.260;2023-04-25T13:41:26;15.60;64.30
59307;DHT22;47983;53.016;-2.260;2023-04-25T13:43:54;15.80;61.20
59307;DHT22;47983;53.016;-2.260;2023-04-25T13:46:22;15.90;61.20
59307;DHT22;47983;53.016;-2.260;2023-04-25T13:49:10;16.60;65.20
59307;DHT22;47983;53.016;-2.260;2023-04-25T13:51:40;16.60;65.40
59307;DHT22;47983;53.016;-2.260;2023-04-25T13:54:08;17.10;60.80
59307;DHT22;47983;53.016;-2.260;2023-04-25T13:56:36;17.80;60.20
59307;DHT22;47983;53.016;-2.260;2023-04-25T13:59:03;18.10;58.90
59307;DHT22;47983;53.016;-2.260;2023-04-25T14:01:31;18.40;57.80
59307;DHT22;47983;53.016;-2.260;2023-04-25T14:04:02;18.50;56.90
59307;DHT22;47983;53.016;-2.260;2023-04-25T14:06:32;18.40;57.20
59307;DHT22;47983;53.016;-2.260;2023-04-25T14:09:00;18.60;57.50
59307;DHT22;47983;53.016;-2.260;2023-04-25T14:11:28;18.90;53.90
59307;DHT22;47983;53.016;-2.260;2023-04-25T14:13:56;19.00;55.00
59307;DHT22;47983;53.016;-2.260;2023-04-25T14:16:23;19.30;56.90
59307;DHT22;47983;53.016;-2.260;2023-04-25T14:18:52;19.60;54.20
59307;DHT22;47983;53.016;-2.260;2023-04-25T14:21:21;19.60;54.50
59307;DHT22;47983;53.016;-2.260;2023-04-25T14:23:49;19.60;53.80
59307;DHT22;47983;53.016;-2.260;2023-04-25T14:26:17;19.50;54.30
59307;DHT22;47983;53.016;-2.260;2023-04-25T14:28:45;19.60;55.30
59307;DHT22;47983;53.016;-2.260;2023-04-25T14:31:12;19.80;53.80
59307;DHT22;47983;53.016;-2.260;2023-04-25T14:33:40;19.60;52.70
59307;DHT22;47983;53.016;-2.260;2023-04-25T14:36:10;18.80;52.90
59307;DHT22;47983;53.016;-2.260;2023-04-25T14:38:38;18.80;53.60
59307;DHT22;47983;53.016;-2.260;2023-04-25T14:41:06;19.00;51.60
59307;DHT22;47983;53.016;-2.260;2023-04-25T14:46:02;19.10;52.20
59307;DHT22;47983;53.016;-2.260;2023-04-25T14:48:30;19.50;53.90
59307;DHT22;47983;53.016;-2.260;2023-04-25T14:50:57;19.70;51.30
59307;DHT22;47983;53.016;-2.260;2023-04-25T14:53:27;19.40;50.50
59307;DHT22;47983;53.016;-2.260;2023-04-25T14:55:55;19.30;51.00
59307;DHT22;47983;53.016;-2.260;2023-04-25T14:58:22;18.70;51.30
59307;DHT22;47983;53.016;-2.260;2023-04-25T15:00:50;17.90;51.30
59307;DHT22;47983;53.016;-2.260;2023-04-25T15:03:18;16.70;52.10
59307;DHT22;47983;53.016;-2.260;2023-04-25T15:05:47;16.60;52.50
59307;DHT22;47983;53.016;-2.260;2023-04-25T15:08:15;16.40;55.50
59307;DHT22;47983;53.016;-2.260;2023-04-25T15:10:46;16.70;54.00
59307;DHT22;47983;53.016;-2.260;2023-04-25T15:13:14;16.90;52.50
59307;DHT22;47983;53.016;-2.260;2023-04-25T15:15:42;16.90;53.40
59307;DHT22;47983;53.016;-2.260;2023-04-25T15:18:10;17.30;54.50
59307;DHT22;47983;53.016;-2.260;2023-04-25T15:20:38;17.70;53.80
59307;DHT22;47983;53.016;-2.260;2023-04-25T15:23:06;18.00;53.30
59307;DHT22;47983;53.016;-2.260;2023-04-25T15:25:33;18.20;52.20
59307;DHT22;47983;53.016;-2.260;2023-04-25T15:28:01;18.30;52.50
59307;DHT22;47983;53.016;-2.260;2023-04-25T15:30:29;18.50;52.40
59307;DHT22;47983;53.016;-2.260;2023-04-25T15:32:56;18.60;51.10
59307;DHT22;47983;53.016;-2.260;2023-04-25T15:35:28;18.60;51.00
59307;DHT22;47983;53.016;-2.260;2023-04-25T15:37:55;18.60;51.60
59307;DHT22;47983;53.016;-2.260;2023-04-25T15:40:23;18.80;53.20
59307;DHT22;47983;53.016;-2.260;2023-04-25T15:42:52;18.80;54.10
59307;DHT22;47983;53.016;-2.260;2023-04-25T15:45:22;18.90;54.80
59307;DHT22;47983;53.016;-2.260;2023-04-25T15:47:56;18.80;54.20
59307;DHT22;47983;53.016;-2.260;2023-04-25T15:50:24;18.60;53.30
59307;DHT22;47983;53.016;-2.260;2023-04-25T15:52:52;18.20;52.50
59307;DHT22;47983;53.016;-2.260;2023-04-25T15:55:19;17.60;52.80
59307;DHT22;47983;53.016;-2.260;2023-04-25T15:57:51;17.10;53.10
59307;DHT22;47983;53.016;-2.260;2023-04-25T16:00:19;16.50;53.50
59307;DHT22;47983;53.016;-2.260;2023-04-25T16:02:51;15.90;54.00
59307;DHT22;47983;53.016;-2.260;2023-04-25T16:05:19;14.90;54.30
59307;DHT22;47983;53.016;-2.260;2023-04-25T16:07:48;14.50;55.20
59307;DHT22;47983;53.016;-2.260;2023-04-25T16:10:17;14.40;55.90
59307;DHT22;47983;53.016;-2.260;2023-04-25T16:12:48;13.80;56.60
59307;DHT22;47983;53.016;-2.260;2023-04-25T16:15:17;13.80;57.20
59307;DHT22;47983;53.016;-2.260;2023-04-25T16:17:45;13.60;57.90